PWSweather.com
Personal Weather Stations
Station Observations
ISCHONGA6
Schongau Forchet, SchongauDE 86956

Schongau ForchetSchongauDE 86956

Lat: 47.8049152, Lon: 10.886856699999953

Elevation: 2407

Station Type: Netatmo

Latest ConditionsUpdated 4:52:00 AM GMT+01:01 Saturday, Jul 21, 2018
Currently Today's Max Today's Min Today's Average
Temperature 60.4°F15.8°C 61.2°F16.2°C 60.4°F15.8°C 60.9°F16.1°C
Dew Point 57.9°F14.4°C 58.5°F14.7°C 57.2°F14.0°C 57.9°F14.4°C
Winds 1.8 mph SW2.9 kmh SW 2.5 mph -4.0 kmh - - 1.8 mph 2.9 kmh
Wind Gusts 4.9 mph7.9 kmh 6.3 mph10.1 kmh - -
Humidity 93% 93% 90% 92%
Pressure 29.94 in1013.9 mb 29.96 in1014.6 mb 29.93 in1013.5 mb -
Precipitation - 0.02 in0.5 mm - -
Hour Temp Dew Point Humidity Winds Wind Gusts Pressure Precip Precip Rate Daily Precip Total
04:52 AM 60.4°F15.8°C 57.9°F14.4°C 93% 1.8 mph SW2.9 kmh SW 4.9 mph7.9 kmh 29.94 in1013.9 mb 0.02 in0.5 mm 0.02 in0.5 mm 0.02 in0.5 mm
04:42 AM 60.6°F15.9°C 58.1°F14.5°C 93% 1.8 mph SW2.9 kmh SW 4.9 mph7.9 kmh 29.93 in1013.5 mb 0.01 in0.3 mm 0.00 in0.0 mm 0.02 in0.5 mm
04:32 AM 60.6°F15.9°C 58.1°F14.5°C 93% 1.3 mph SW2.1 kmh SW 2.5 mph4.0 kmh 29.93 in1013.5 mb 0.01 in0.3 mm 0.03 in0.8 mm 0.02 in0.5 mm
04:14 AM 60.8°F16.0°C 58.3°F14.6°C 93% - N N -- 29.93 in1013.5 mb 0.00 in0.0 mm 0.00 in0.0 mm 0.01 in0.3 mm
04:04 AM 60.8°F16.0°C 57.9°F14.4°C 92% - N N -- 29.93 in1013.5 mb 0.00 in0.0 mm 0.00 in0.0 mm 0.01 in0.3 mm
03:56 AM 60.8°F16.0°C 57.9°F14.4°C 92% 1.8 mph SW2.9 kmh SW 3.1 mph5.0 kmh 29.93 in1013.5 mb 0.00 in0.0 mm 0.00 in0.0 mm 0.01 in0.3 mm
03:46 AM 60.8°F16.0°C 57.4°F14.1°C 91% 1.8 mph SW2.9 kmh SW 3.1 mph5.0 kmh 29.94 in1013.9 mb 0.00 in0.0 mm 0.00 in0.0 mm 0.01 in0.3 mm
03:35 AM 60.8°F16.0°C 57.9°F14.4°C 92% 1.8 mph SW2.9 kmh SW 3.1 mph5.0 kmh 29.94 in1013.9 mb 0.00 in0.0 mm 0.00 in0.0 mm 0.01 in0.3 mm
03:25 AM 60.8°F16.0°C 57.4°F14.1°C 91% 1.8 mph SW2.9 kmh SW 3.1 mph5.0 kmh 29.93 in1013.5 mb 0.00 in0.0 mm 0.00 in0.0 mm 0.01 in0.3 mm
03:15 AM 60.8°F16.0°C 57.4°F14.1°C 91% 1.8 mph SW2.9 kmh SW 3.1 mph5.0 kmh 29.93 in1013.5 mb 0.00 in0.0 mm 0.00 in0.0 mm 0.01 in0.3 mm
03:06 AM 60.8°F16.0°C 57.4°F14.1°C 91% 1.8 mph SW2.9 kmh SW 3.1 mph5.0 kmh 29.93 in1013.5 mb 0.00 in0.0 mm 0.00 in0.0 mm 0.01 in0.3 mm
02:55 AM 60.8°F16.0°C 57.9°F14.4°C 92% 1.8 mph SW2.9 kmh SW 3.1 mph5.0 kmh 29.93 in1013.5 mb 0.00 in0.0 mm 0.00 in0.0 mm 0.01 in0.3 mm
02:45 AM 61.0°F16.1°C 57.6°F14.2°C 91% 1.8 mph SW2.9 kmh SW 3.1 mph5.0 kmh 29.93 in1013.5 mb 0.00 in0.0 mm 0.00 in0.0 mm 0.01 in0.3 mm
02:35 AM 61.0°F16.1°C 58.1°F14.5°C 92% 1.8 mph SW2.9 kmh SW 3.1 mph5.0 kmh 29.93 in1013.5 mb 0.00 in0.0 mm 0.00 in0.0 mm 0.01 in0.3 mm
02:25 AM 61.0°F16.1°C 58.5°F14.7°C 93% 1.8 mph SW2.9 kmh SW 3.1 mph5.0 kmh 29.93 in1013.5 mb 0.00 in0.0 mm 0.00 in0.0 mm 0.01 in0.3 mm
02:15 AM 61.0°F16.1°C 58.5°F14.7°C 93% 1.8 mph SW2.9 kmh SW 3.1 mph5.0 kmh 29.94 in1013.9 mb 0.00 in0.0 mm 0.00 in0.0 mm 0.01 in0.3 mm
02:05 AM 61.0°F16.1°C 58.1°F14.5°C 92% 1.8 mph SSW2.9 kmh SSW 5.6 mph9.0 kmh 29.94 in1013.9 mb 0.00 in0.0 mm 0.00 in0.0 mm 0.01 in0.3 mm
01:55 AM 61.0°F16.1°C 57.6°F14.2°C 91% 1.3 mph W2.1 kmh W 3.1 mph5.0 kmh 29.93 in1013.5 mb 0.00 in0.0 mm 0.00 in0.0 mm 0.01 in0.3 mm
01:44 AM 61.2°F16.2°C 58.3°F14.6°C 92% 1.3 mph W2.1 kmh W 3.1 mph5.0 kmh 29.93 in1013.5 mb 0.00 in0.0 mm 0.00 in0.0 mm 0.01 in0.3 mm
01:34 AM 61.2°F16.2°C 57.7°F14.3°C 91% 1.3 mph W2.1 kmh W 2.5 mph4.0 kmh 29.93 in1013.5 mb 0.00 in0.0 mm 0.00 in0.0 mm 0.01 in0.3 mm
01:25 AM 61.2°F16.2°C 57.4°F14.1°C 90% 2.5 mph SW4.0 kmh SW 6.3 mph10.1 kmh 29.93 in1013.5 mb 0.00 in0.0 mm 0.00 in0.0 mm 0.01 in0.3 mm
01:14 AM 61.2°F16.2°C 57.7°F14.3°C 91% 2.5 mph SSW4.0 kmh SSW 6.3 mph10.1 kmh 29.93 in1013.5 mb 0.00 in0.0 mm 0.02 in0.5 mm 0.01 in0.3 mm
01:04 AM 61.2°F16.2°C 57.7°F14.3°C 91% 1.8 mph SW2.9 kmh SW 5.6 mph9.0 kmh 29.94 in1013.9 mb 0.00 in0.0 mm 0.00 in0.0 mm 0.00 in0.0 mm
12:54 AM 61.2°F16.2°C 57.7°F14.3°C 91% 1.3 mph SW2.1 kmh SW 3.1 mph5.0 kmh 29.94 in1013.9 mb 0.00 in0.0 mm 0.00 in0.0 mm 0.00 in0.0 mm
12:44 AM 61.2°F16.2°C 58.3°F14.6°C 92% 1.8 mph SW2.9 kmh SW 6.3 mph10.1 kmh 29.94 in1013.9 mb 0.00 in0.0 mm 0.00 in0.0 mm 0.00 in0.0 mm
12:34 AM 61.0°F16.1°C 57.6°F14.2°C 91% 2.5 mph SW4.0 kmh SW 4.9 mph7.9 kmh 29.94 in1013.9 mb 0.00 in0.0 mm 0.00 in0.0 mm 0.00 in0.0 mm
12:24 AM 61.0°F16.1°C 58.1°F14.5°C 92% 2.5 mph SW4.0 kmh SW 4.9 mph7.9 kmh 29.95 in1014.2 mb 0.00 in0.0 mm 0.00 in0.0 mm 0.00 in0.0 mm
12:14 AM 61.0°F16.1°C 57.2°F14.0°C 90% 2.5 mph SW4.0 kmh SW 4.9 mph7.9 kmh 29.95 in1014.2 mb 0.00 in0.0 mm 0.00 in0.0 mm 0.00 in0.0 mm
12:04 AM 60.8°F16.0°C 58.3°F14.6°C 93% 1.3 mph SW2.1 kmh SW 3.1 mph5.0 kmh 29.96 in1014.6 mb 0.00 in0.0 mm 0.06 in1.5 mm 0.00 in0.0 mm